Bainbridge Township, Ohio
Current Conditions -  °F | °C
As of 1:21 AM on Saturday 29 Nov 2014 (Local Time) from KPOV Reporting Station
Overcast Overcast  
Wind Chill: 28°   Ceiling: 6500
Heat Index: 28°   Visibility: 10mi
Dew Point: 19°   Wind: 3mph
Humidity: 69%   Direction: 140°SE
Pressure: 30.12"   Gusts: NA
Location:  41.3913°N, 81.3197°W
Report Text: KPOV 290621Z AUTO 14003KT 10SM OVC065 M02/M07 A3012 RMK AO2 T10251074
Loading
Personal Weather Stations






























Interactive Weather Map New forecast layout! Learn more

10-Day Weather Forecast

Advertisements
Track Severe Weather on mobile